createdAt,value
2023-01-17T00:01:54.597Z,93935.94
2023-01-17T00:04:59.960Z,93927.75
2023-01-17T00:08:04.347Z,93924.88
2023-01-17T00:10:50.240Z,93931.03
2023-01-17T00:13:35.868Z,93932.78
2023-01-17T00:16:21.625Z,93939.06
2023-01-17T00:19:25.907Z,93933.06
2023-01-17T00:22:38.934Z,93951.22
2023-01-17T00:25:50.939Z,93953.22
2023-01-17T00:28:41.177Z,93952.47
2023-01-17T00:31:27.260Z,93948.81
2023-01-17T00:34:12.904Z,93953.06
2023-01-17T00:36:58.723Z,93928.91
2023-01-17T00:39:44.519Z,93939.66
2023-01-17T00:42:30.644Z,93934.44
2023-01-17T00:45:35.108Z,93925.28
2023-01-17T00:48:39.574Z,93931.56
2023-01-17T00:51:45.174Z,93940.41
2023-01-17T00:54:49.344Z,93940.25
2023-01-17T00:57:54.543Z,93947.19
2023-01-17T01:00:58.945Z,93941.94
2023-01-17T01:04:03.388Z,93942.72
2023-01-17T01:07:07.872Z,93940.53
2023-01-17T01:10:12.132Z,93918.56
2023-01-17T01:13:16.282Z,93924.88
2023-01-17T01:16:23.385Z,93919.50
2023-01-17T01:19:27.739Z,93923.56
2023-01-17T01:22:32.189Z,93917.09
2023-01-17T01:25:36.772Z,93921.81
2023-01-17T01:28:41.527Z,93922.09
2023-01-17T01:31:46.065Z,93913.09
2023-01-17T01:34:32.180Z,93917.50
2023-01-17T01:37:17.778Z,93916.38
2023-01-17T01:40:03.931Z,93906.56
2023-01-17T01:42:58.498Z,93896.59
2023-01-17T01:45:48.394Z,93887.28
2023-01-17T01:48:37.125Z,93895.34
2023-01-17T01:51:26.769Z,93892.66
2023-01-17T01:54:17.239Z,93869.59
2023-01-17T01:57:05.793Z,93878.44
2023-01-17T01:59:57.460Z,93872.28
2023-01-17T02:02:44.417Z,93872.75
2023-01-17T02:05:30.574Z,93870.06
2023-01-17T02:08:22.099Z,93868.94
2023-01-17T02:11:08.174Z,93855.84
2023-01-17T02:15:07.474Z,93851.25
2023-01-17T02:18:51.592Z,93833.09
2023-01-17T02:21:57.751Z,93835.13
2023-01-17T02:25:03.830Z,93839.38
2023-01-17T02:28:32.863Z,93838.28
2023-01-17T02:32:01.273Z,93841.44
2023-01-17T02:35:15.725Z,93825.41
2023-01-17T02:38:31.698Z,93841.69
2023-01-17T02:41:36.852Z,93852.56
2023-01-17T02:44:24.045Z,93860.31
2023-01-17T02:47:23.566Z,93872.50
2023-01-17T02:51:41.653Z,93886.25
2023-01-17T02:54:47.348Z,93891.63
2023-01-17T02:58:13.313Z,93877.72
2023-01-17T03:02:07.258Z,93874.56
2023-01-17T03:05:00.926Z,93886.00
2023-01-17T03:07:48.407Z,93880.63
2023-01-17T03:10:35.460Z,93873.22
2023-01-17T03:13:22.738Z,93859.78
2023-01-17T03:16:14.508Z,93852.81
2023-01-17T03:19:01.037Z,93833.03
2023-01-17T03:21:46.629Z,93847.72
2023-01-17T03:24:32.363Z,93853.75
2023-01-17T03:27:18.175Z,93866.97
2023-01-17T03:30:04.647Z,93852.44
2023-01-17T03:32:50.514Z,93858.28
2023-01-17T03:36:01.339Z,93860.97
2023-01-17T03:38:47.195Z,93864.13
2023-01-17T03:42:08.188Z,93867.91
2023-01-17T03:44:53.920Z,93878.81
2023-01-17T03:47:39.565Z,93891.91
2023-01-17T03:50:25.491Z,93882.72
2023-01-17T03:53:26.836Z,93891.25
2023-01-17T03:56:13.355Z,93901.03
2023-01-17T03:59:00.185Z,93900.81
2023-01-17T04:01:48.077Z,93907.44
2023-01-17T04:04:34.213Z,93907.59
2023-01-17T04:07:20.587Z,93878.13
2023-01-17T04:10:06.941Z,93875.44
2023-01-17T04:12:52.835Z,93875.91
2023-01-17T04:16:49.583Z,93873.22
2023-01-17T04:19:36.502Z,93880.63
2023-01-17T04:22:22.479Z,93889.16
2023-01-17T04:25:31.032Z,93900.72
2023-01-17T04:29:01.933Z,93886.16
2023-01-17T04:31:48.741Z,93906.19
2023-01-17T04:34:34.769Z,93917.88
2023-01-17T05:19:55.571Z,93921.69
2023-01-17T05:31:53.830Z,93955.84
2023-01-17T05:34:39.567Z,93947.78
2023-01-17T05:43:20.322Z,93963.91
2023-01-17T05:46:08.250Z,93943.97
2023-01-17T05:48:54.763Z,93919.44
2023-01-17T05:51:40.766Z,93945.69
2023-01-17T05:54:26.506Z,93936.38
2023-01-17T06:03:11.563Z,93941.38
2023-01-17T06:05:57.467Z,93942.94
2023-01-17T06:08:43.788Z,93939.56
2023-01-17T06:16:13.346Z,93927.06
2023-01-17T06:18:59.098Z,93937.63
2023-01-17T06:21:44.730Z,93945.03
2023-01-17T06:24:30.636Z,93957.03
2023-01-17T06:27:16.722Z,93972.06
2023-01-17T06:34:40.667Z,93984.53
2023-01-17T06:37:26.461Z,93989.72
2023-01-17T06:40:48.226Z,93994.78
2023-01-17T06:43:34.985Z,93998.72
2023-01-17T06:46:20.957Z,94010.38
2023-01-17T06:53:31.351Z,93996.28
2023-01-17T06:56:17.045Z,93970.69
2023-01-17T06:59:19.371Z,93975.75
2023-01-17T07:02:04.926Z,93990.91
2023-01-17T07:04:50.778Z,94008.28
2023-01-17T07:07:36.756Z,94009.09
2023-01-17T07:10:23.714Z,93993.59
2023-01-17T07:13:09.576Z,93993.72
2023-01-17T07:15:55.548Z,94011.56
2023-01-17T07:18:41.154Z,93993.59
2023-01-17T07:21:27.051Z,94006.31
2023-01-17T07:24:27.066Z,94011.84
2023-01-17T07:27:12.555Z,94030.47
2023-01-17T07:29:58.354Z,94021.28
2023-01-17T07:32:44.319Z,94036.13
2023-01-17T07:35:30.230Z,94035.44
2023-01-17T07:38:18.285Z,94041.75
2023-01-17T07:41:03.964Z,94028.63
2023-01-17T07:43:49.810Z,94043.47
2023-01-17T07:46:40.817Z,94054.69
2023-01-17T07:49:26.878Z,94050.22
2023-01-17T07:52:13.230Z,94055.13
2023-01-17T07:55:01.209Z,94067.63
2023-01-17T07:57:50.339Z,94060.00
2023-01-17T08:00:36.427Z,94063.16
2023-01-17T08:03:22.120Z,94045.53
2023-01-17T08:06:47.460Z,94035.56
2023-01-17T08:09:33.248Z,94031.75
2023-01-17T08:12:31.235Z,94044.09
2023-01-17T08:15:23.852Z,94054.22
2023-01-17T08:18:09.953Z,94045.03
2023-01-17T08:20:55.848Z,94040.28
2023-01-17T08:23:41.594Z,94042.66
2023-01-17T08:26:27.502Z,94049.94
2023-01-17T08:29:13.490Z,94065.78
2023-01-17T08:31:59.178Z,94043.44
2023-01-17T08:34:44.775Z,94053.44
2023-01-17T08:37:30.424Z,94043.44
2023-01-17T08:40:19.858Z,94056.44
2023-01-17T08:43:05.907Z,94068.16
2023-01-17T08:45:55.939Z,94062.75
2023-01-17T08:48:41.774Z,94060.50
2023-01-17T08:51:27.882Z,94063.66
2023-01-17T08:54:15.299Z,94078.38
2023-01-17T08:57:03.425Z,94059.97
2023-01-17T08:59:49.277Z,94056.97
2023-01-17T09:02:34.868Z,94070.88
2023-01-17T09:05:20.924Z,94076.06
2023-01-17T09:08:06.511Z,94088.88
2023-01-17T09:10:52.314Z,94091.38
2023-01-17T09:13:38.470Z,94081.53
2023-01-17T09:16:24.489Z,94075.91
2023-01-17T09:19:10.550Z,94074.78
2023-01-17T09:21:56.269Z,94079.75
2023-01-17T09:24:42.224Z,94080.44
2023-01-17T09:27:28.018Z,94096.06
2023-01-17T09:30:14.219Z,94097.78
2023-01-17T09:32:59.925Z,94084.75
2023-01-17T09:35:46.491Z,94080.56
2023-01-17T09:38:33.531Z,94066.31
2023-01-17T09:41:23.274Z,94080.25
2023-01-17T09:44:40.507Z,94084.97
2023-01-17T09:47:41.565Z,94081.94
2023-01-17T09:50:33.645Z,94070.47
2023-01-17T09:53:22.611Z,94061.63
2023-01-17T09:56:15.196Z,94045.88
2023-01-17T09:59:20.656Z,94043.44
2023-01-17T10:02:34.307Z,94036.91
2023-01-17T10:05:35.994Z,94047.00
2023-01-17T10:08:30.931Z,94039.38
2023-01-17T10:11:31.730Z,94026.69
2023-01-17T10:14:51.581Z,94049.28
2023-01-17T10:17:53.877Z,94042.06
2023-01-17T10:20:46.958Z,94033.19
2023-01-17T10:24:13.773Z,94027.00
2023-01-17T10:27:00.755Z,94015.09
2023-01-17T10:29:47.992Z,94003.19
2023-01-17T10:32:35.437Z,94009.03
2023-01-17T10:35:28.549Z,94012.41
2023-01-17T10:38:18.525Z,93999.69
2023-01-17T10:41:14.263Z,94012.41
2023-01-17T10:44:36.442Z,94013.06
2023-01-17T10:47:24.477Z,94004.09
2023-01-17T10:50:13.242Z,93985.69
2023-01-17T10:53:12.053Z,93992.72
2023-01-17T10:55:58.077Z,93981.34
2023-01-17T10:58:43.979Z,93976.06
2023-01-17T11:01:30.152Z,93978.41
2023-01-17T11:04:36.796Z,93958.78
2023-01-17T11:07:28.259Z,93952.44
2023-01-17T11:10:40.123Z,93952.16
2023-01-17T11:13:30.390Z,93935.13
2023-01-17T11:16:27.361Z,93928.69
2023-01-17T11:19:26.011Z,93915.78
2023-01-17T11:22:14.293Z,93915.06
2023-01-17T11:25:02.606Z,93914.78
2023-01-17T11:28:00.660Z,93912.09
2023-01-17T11:30:55.655Z,93899.97
2023-01-17T11:33:47.931Z,93897.34
2023-01-17T11:36:35.722Z,93886.91
2023-01-17T11:39:25.975Z,93889.75
2023-01-17T11:42:34.758Z,93875.25
2023-01-17T11:45:29.303Z,93863.34
2023-01-17T11:48:17.792Z,93856.56
2023-01-17T11:51:39.188Z,93855.00
2023-01-17T11:54:42.168Z,93849.75
2023-01-17T11:57:33.472Z,93838.63
2023-01-17T12:00:41.043Z,93821.25
2023-01-17T12:03:54.467Z,93829.22
2023-01-17T12:07:03.071Z,93820.81
2023-01-17T12:09:48.752Z,93819.34
2023-01-17T12:13:29.123Z,93809.81
2023-01-17T12:16:53.569Z,93805.53
2023-01-17T12:20:01.188Z,93816.38
2023-01-17T12:23:35.335Z,93817.78
2023-01-17T12:26:50.715Z,93808.44
2023-01-17T12:29:39.403Z,93805.66
2023-01-17T12:32:43.489Z,93769.75
2023-01-17T12:35:41.118Z,93767.44
2023-01-17T12:38:33.553Z,93781.63
2023-01-17T12:41:28.241Z,93774.47
2023-01-17T12:44:16.361Z,93773.75
2023-01-17T12:47:04.047Z,93766.19
2023-01-17T12:50:04.927Z,93798.22
2023-01-17T12:53:10.738Z,93786.38
2023-01-17T12:56:14.772Z,93821.75
2023-01-17T12:59:26.785Z,93797.72
2023-01-17T13:02:34.213Z,93804.78
2023-01-17T13:05:23.736Z,93787.41
2023-01-17T13:08:28.641Z,93798.00
2023-01-17T13:11:30.309Z,93805.53
2023-01-17T13:14:16.633Z,93781.38
2023-01-17T13:17:27.182Z,93807.19
2023-01-17T13:20:33.739Z,93811.41
2023-01-17T13:23:48.792Z,93773.47
2023-01-17T13:26:58.619Z,93782.69
2023-01-17T13:30:04.082Z,93810.75
2023-01-17T13:33:07.117Z,93811.13
2023-01-17T13:36:08.507Z,93807.28
2023-01-17T13:39:24.189Z,93806.00
2023-01-17T13:47:11.409Z,93794.13
2023-01-17T13:49:57.510Z,93788.19
2023-01-17T13:52:43.262Z,93796.94
2023-01-17T13:55:46.951Z,93789.44
2023-01-17T13:58:50.222Z,93779.75
2023-01-17T14:01:38.713Z,93772.06
2023-01-17T14:04:25.256Z,93794.75
2023-01-17T14:07:21.120Z,93801.72
2023-01-17T14:10:43.160Z,93781.78
2023-01-17T14:13:31.953Z,93773.66
2023-01-17T14:16:22.949Z,93775.84
2023-01-17T14:19:25.705Z,93759.84
2023-01-17T14:22:20.953Z,93774.50
2023-01-17T14:25:17.552Z,93755.13
2023-01-17T14:28:08.323Z,93757.44
2023-01-17T14:30:56.577Z,93759.69
2023-01-17T14:33:43.095Z,93765.94
2023-01-17T14:36:32.395Z,93755.06
2023-01-17T14:39:23.289Z,93774.41
2023-01-17T14:42:13.312Z,93798.28
2023-01-17T14:45:04.217Z,93749.50
2023-01-17T14:47:51.797Z,93738.19
2023-01-17T14:50:42.566Z,93736.91
2023-01-17T14:53:30.751Z,93732.91
2023-01-17T14:56:17.957Z,93723.94
2023-01-17T14:59:16.928Z,93725.03
2023-01-17T15:02:08.759Z,93717.81
2023-01-17T15:04:55.287Z,93728.53
2023-01-17T15:07:43.606Z,93746.97
2023-01-17T15:10:32.195Z,93747.22
2023-01-17T15:13:27.796Z,93750.63
2023-01-17T15:16:25.760Z,93750.56
2023-01-17T15:19:13.884Z,93758.94
2023-01-17T15:21:59.963Z,93759.63
2023-01-17T15:24:46.988Z,93748.66
2023-01-17T15:27:33.549Z,93753.19
2023-01-17T15:30:19.660Z,93764.72
2023-01-17T15:33:05.778Z,93757.53
2023-01-17T15:36:00.182Z,93765.13
2023-01-17T15:38:52.657Z,93762.66
2023-01-17T15:41:39.719Z,93755.53
2023-01-17T15:44:53.018Z,93752.31
2023-01-17T15:47:39.423Z,93767.53
2023-01-17T15:50:30.627Z,93752.75
2023-01-17T15:53:37.147Z,93745.59
2023-01-17T15:56:33.683Z,93750.22
2023-01-17T15:59:45.556Z,93726.06
2023-01-17T16:02:58.956Z,93718.41
2023-01-17T16:05:46.181Z,93709.09
2023-01-17T16:08:38.698Z,93716.69
2023-01-17T16:11:24.727Z,93710.38
2023-01-17T16:14:11.604Z,93699.59
2023-01-17T16:17:01.644Z,93706.13
2023-01-17T16:19:47.444Z,93715.63
2023-01-17T16:22:34.223Z,93691.78
2023-01-17T16:25:21.887Z,93700.13
2023-01-17T16:28:07.513Z,93685.50
2023-01-17T16:30:54.088Z,93659.19
2023-01-17T16:33:42.428Z,93671.13
2023-01-17T16:36:28.251Z,93658.78
2023-01-17T16:39:15.246Z,93641.81
2023-01-17T16:42:03.994Z,93635.19
2023-01-17T16:44:49.880Z,93642.41
2023-01-17T16:47:35.666Z,93639.72
2023-01-17T16:50:23.794Z,93669.81
2023-01-17T16:53:09.418Z,93675.22
2023-01-17T16:55:58.232Z,93684.44
2023-01-17T16:58:43.991Z,93696.13
2023-01-17T17:01:30.112Z,93684.88
2023-01-17T17:04:16.341Z,93675.38
2023-01-17T17:07:02.364Z,93667.06
2023-01-17T17:09:48.230Z,93663.22
2023-01-17T17:12:34.629Z,93658.69
2023-01-17T17:15:21.665Z,93668.34
2023-01-17T17:18:15.197Z,93683.41
2023-01-17T17:21:02.267Z,93662.94
2023-01-17T17:23:51.008Z,93677.56
2023-01-17T17:26:37.112Z,93679.50
2023-01-17T17:29:22.868Z,93687.94
2023-01-17T17:32:11.762Z,93688.72
2023-01-17T17:34:57.971Z,93685.25
2023-01-17T17:37:43.836Z,93682.56
2023-01-17T17:40:29.935Z,93682.91
2023-01-17T17:43:15.941Z,93682.91
2023-01-17T17:46:01.529Z,93664.34
2023-01-17T17:48:47.911Z,93666.25
2023-01-17T17:51:36.379Z,93667.41
2023-01-17T17:54:22.588Z,93668.34
2023-01-17T17:57:09.633Z,93662.28
2023-01-17T17:59:56.848Z,93669.13
2023-01-17T18:02:42.486Z,93658.59
2023-01-17T18:05:28.223Z,93654.31
2023-01-17T18:08:14.060Z,93652.34
2023-01-17T18:11:04.968Z,93664.25
2023-01-17T18:13:52.060Z,93654.94
2023-01-17T18:16:41.790Z,93659.53
2023-01-17T18:19:27.689Z,93659.53
2023-01-17T18:22:13.615Z,93651.69
2023-01-17T18:24:59.571Z,93659.53
2023-01-17T18:27:45.435Z,93643.38
2023-01-17T18:30:37.140Z,93647.97
2023-01-17T18:33:22.868Z,93634.94
2023-01-17T18:36:10.913Z,93625.28
2023-01-17T18:38:57.160Z,93641.78
2023-01-17T18:41:43.041Z,93628.75
2023-01-17T18:44:30.151Z,93634.59
2023-01-17T18:47:15.892Z,93623.47
2023-01-17T18:50:01.660Z,93632.34
2023-01-17T18:52:47.473Z,93617.34
2023-01-17T18:55:33.335Z,93630.50
2023-01-17T18:58:21.072Z,93632.84
2023-01-17T19:01:25.495Z,93625.09
2023-01-17T19:04:14.474Z,93628.22
2023-01-17T19:07:00.327Z,93618.91
2023-01-17T19:09:46.016Z,93618.13
2023-01-17T19:12:32.767Z,93613.53
2023-01-17T19:15:18.419Z,93613.06
2023-01-17T19:18:04.833Z,93607.34
2023-01-17T19:20:50.711Z,93621.63
2023-01-17T19:23:37.538Z,93624.66
2023-01-17T19:26:25.175Z,93633.53
2023-01-17T19:29:12.137Z,93614.59
2023-01-17T19:31:58.250Z,93621.97
2023-01-17T19:34:44.220Z,93636.56
2023-01-17T19:37:30.039Z,93631.88
2023-01-17T19:40:17.777Z,93627.34
2023-01-17T19:43:04.765Z,93617.69
2023-01-17T19:46:00.130Z,93609.59
2023-01-17T19:48:46.097Z,93632.75
2023-01-17T19:51:31.843Z,93616.56
2023-01-17T19:54:18.102Z,93623.53
2023-01-17T19:57:03.992Z,93640.50
2023-01-17T19:59:50.374Z,93621.28
2023-01-17T20:02:37.884Z,93638.59
2023-01-17T20:05:24.135Z,93629.72
2023-01-17T20:08:09.947Z,93638.25
2023-01-17T20:11:01.649Z,93632.06
2023-01-17T20:13:49.248Z,93644.41
2023-01-17T20:16:36.435Z,93649.03
2023-01-17T20:19:22.619Z,93656.44
2023-01-17T20:22:08.717Z,93665.31
2023-01-17T20:24:54.632Z,93662.63
2023-01-17T20:27:44.461Z,93664.59
2023-01-17T20:30:31.885Z,93653.03
2023-01-17T20:33:18.790Z,93650.88
2023-01-17T20:36:10.443Z,93649.41
2023-01-17T20:39:12.313Z,93643.22
2023-01-17T20:41:58.166Z,93648.50
2023-01-17T20:44:44.706Z,93652.44
2023-01-17T20:47:30.337Z,93650.88
2023-01-17T20:50:16.686Z,93647.03
2023-01-17T20:53:03.843Z,93653.56
2023-01-17T20:55:56.068Z,93647.72
2023-01-17T20:58:44.067Z,93643.72
2023-01-17T21:06:25.045Z,93661.28
2023-01-17T21:09:13.054Z,93665.13
2023-01-17T21:12:06.177Z,93671.22
2023-01-17T21:15:24.878Z,93648.75
2023-01-17T21:18:10.644Z,93660.22
2023-01-17T21:21:02.955Z,93663.38
2023-01-17T21:25:25.417Z,93688.97
2023-01-17T21:28:12.207Z,93674.19
2023-01-17T21:30:58.040Z,93667.75
2023-01-17T21:33:44.175Z,93666.38
2023-01-17T21:36:35.371Z,93675.59
2023-01-17T21:39:23.323Z,93682.28
2023-01-17T21:42:10.808Z,93674.63
2023-01-17T21:45:09.380Z,93670.00
2023-01-17T21:48:40.684Z,93686.56
2023-01-17T21:51:51.800Z,93675.75
2023-01-17T21:55:10.219Z,93681.16
2023-01-17T21:58:21.542Z,93705.44
2023-01-17T22:01:09.063Z,93703.44
2023-01-17T22:04:00.287Z,93716.50
2023-01-17T22:06:46.611Z,93715.09
2023-01-17T22:09:32.585Z,93710.84
2023-01-17T22:12:18.649Z,93696.22
2023-01-17T22:15:05.009Z,93691.84
2023-01-17T22:17:50.920Z,93709.03
2023-01-17T22:21:29.030Z,93705.19
2023-01-17T22:24:17.003Z,93692.84
2023-01-17T22:27:04.032Z,93700.59
2023-01-17T22:29:49.921Z,93706.84
2023-01-17T22:32:35.644Z,93706.84
2023-01-17T22:35:21.552Z,93705.25
2023-01-17T22:38:07.462Z,93712.16
2023-01-17T22:40:53.151Z,93695.97
2023-01-17T22:44:18.705Z,93697.34
2023-01-17T22:47:04.600Z,93688.81
2023-01-17T22:50:23.687Z,93691.78
2023-01-17T22:53:10.465Z,93669.31
2023-01-17T22:56:09.745Z,93681.66
2023-01-17T22:58:55.912Z,93681.56
2023-01-17T23:01:41.695Z,93674.19
2023-01-17T23:04:28.570Z,93667.56
2023-01-17T23:07:15.722Z,93659.81
2023-01-17T23:11:09.375Z,93670.50
2023-01-17T23:15:31.482Z,93658.84
2023-01-17T23:18:49.450Z,93649.09
2023-01-17T23:21:55.847Z,93652.84
2023-01-17T23:25:30.700Z,93664.06
2023-01-17T23:28:22.878Z,93649.00
2023-01-17T23:31:13.187Z,93645.44
2023-01-17T23:38:37.958Z,93628.38
2023-01-17T23:45:18.119Z,93619.06
2023-01-17T23:48:05.704Z,93614.38
2023-01-17T23:50:51.988Z,93619.84
2023-01-17T23:54:21.743Z,93612.09
2023-01-17T23:57:07.847Z,93612.19
2023-01-17T23:59:53.607Z,93608.38
